Airfield :
LOGIN :

Register | Disclaimer

   EN    FR    IT 

 










Legend :    VFR   Marginal VFR   IFR   Intensive IFR   Very Intensive IFR
Visi :
Ceiling :
>= 8 km
>= 3000ft
5 to 8 km
1000 to 3000 ft
1500m to 5 km
500 to 1000 ft
800 to 1500m
200 to 500 ft
< 800m
< 200 ft
Symbols :   Thunderstorms  Fog  Heavy snow  Heavy precipitations  Wind > 20 kt
SIGMETs :     Misc.  Thunderstorms  Icing  Turbulence  Mountain Waves  Volcanic Ashes






- Airport Elevation : 1090 ft
- IATA code : CFE


LFLC - Clermont-Ferrand Auvergne

CURRENT METAR :
  • 022100Z AUTO 24004KT CAVOK 17/12 Q1013 NOSIG

EXPIRED METARs :
  • 022030Z AUTO 23002KT CAVOK 18/12 Q1013 NOSIG
  • 022000Z AUTO 00000KT CAVOK 19/13 Q1013 NOSIG
  • 021930Z AUTO VRB01KT CAVOK 21/13 Q1013 NOSIG
  • 021900Z AUTO 02002KT CAVOK 24/11 Q1013 NOSIG
  • 021830Z AUTO 04003KT 010V080 CAVOK 25/11 Q1013 NOSIG

TAF TAF LFLC
Valid from the 02 at 21:00 until the 03 at 21:00 UTC


022000Z 0221/0321 18008KT CAVOK
TEMPO 0310/0321 VRB15G25KT 4000 SHRA BKN070TCU
PROB40
TEMPO 0310/0319 VRB15G35KT 2000 TSRA BKN050CB
PROB30
TEMPO 0312/0314 1000 TSGR
PROB30
TEMPO 0319/0321 BKN009
ATIS : +33 4 73 62 74 38



MET'MAP, your aeronautical weather chart ! - Copyright ORBIFLY December 2007 - Disclaimer

ORBIFLY MET'MAP TEAM :

Programming & Development : Alexandra Zaïnal
Concept & original design : Baudouin d'Aumeries
Assistance for programming : Marc-Olivier Méhu
Technical & hardware support : Manuel Goepfert

Contact : metmap@orbifly.com




SOURCES & CREDITS :

   NOAA